createdAt,value
2018-10-06T00:01:42.205Z,57.93
2018-10-06T00:04:13.463Z,54.73
2018-10-06T00:06:43.604Z,53.13
2018-10-06T00:09:13.678Z,52.87
2018-10-06T00:11:43.722Z,52.47
2018-10-06T00:14:13.944Z,52.83
2018-10-06T00:16:44.876Z,53.37
2018-10-06T00:19:14.938Z,56.93
2018-10-06T00:21:45.376Z,53.53
2018-10-06T00:24:15.686Z,54.50
2018-10-06T00:26:46.028Z,54.17
2018-10-06T00:29:16.305Z,55.20
2018-10-06T00:31:46.931Z,54.97
2018-10-06T00:34:18.831Z,54.97
2018-10-06T00:36:50.630Z,54.67
2018-10-06T00:39:21.757Z,53.43
2018-10-06T00:41:54.043Z,53.87
2018-10-06T00:44:24.479Z,52.13
2018-10-06T00:46:55.012Z,54.60
2018-10-06T00:49:26.259Z,53.80
2018-10-06T00:51:56.855Z,52.73
2018-10-06T00:54:27.754Z,51.77
2018-10-06T00:56:58.713Z,52.17
2018-10-06T00:59:28.848Z,50.77
2018-10-06T01:02:00.161Z,50.13
2018-10-06T01:04:30.628Z,49.83
2018-10-06T01:07:00.746Z,48.77
2018-10-06T01:09:31.049Z,47.77
2018-10-06T01:12:02.811Z,48.67
2018-10-06T01:14:33.329Z,49.17
2018-10-06T01:17:03.964Z,50.47
2018-10-06T01:19:35.779Z,47.17
2018-10-06T01:22:06.536Z,46.67
2018-10-06T01:24:39.244Z,47.00
2018-10-06T01:27:09.626Z,48.37
2018-10-06T01:29:39.760Z,45.87
2018-10-06T01:32:13.261Z,44.60
2018-10-06T01:34:43.902Z,43.40
2018-10-06T01:37:14.350Z,43.00
2018-10-06T01:39:44.540Z,43.07
2018-10-06T01:42:15.784Z,43.03
2018-10-06T01:44:45.784Z,42.87
2018-10-06T01:47:16.152Z,43.50
2018-10-06T01:49:46.715Z,43.13
2018-10-06T01:52:19.803Z,43.47
2018-10-06T01:54:50.750Z,41.77
2018-10-06T01:57:20.750Z,40.90
2018-10-06T01:59:51.132Z,40.63
2018-10-06T02:02:21.161Z,41.83
2018-10-06T02:04:51.358Z,42.67
2018-10-06T02:07:22.183Z,42.83
2018-10-06T02:09:52.434Z,41.63
2018-10-06T02:12:23.605Z,40.17
2018-10-06T02:14:53.900Z,39.97
2018-10-06T02:17:24.137Z,39.73
2018-10-06T02:19:56.279Z,39.53
2018-10-06T02:22:26.633Z,39.43
2018-10-06T02:24:57.359Z,39.80
2018-10-06T02:27:27.586Z,40.17
2018-10-06T02:29:58.139Z,40.27
2018-10-06T02:32:28.969Z,39.83
2018-10-06T02:35:00.952Z,40.67
2018-10-06T02:37:31.203Z,40.47
2018-10-06T02:40:01.401Z,40.47
2018-10-06T02:42:31.829Z,40.73
2018-10-06T02:45:02.160Z,40.50
2018-10-06T02:47:32.090Z,41.00
2018-10-06T02:50:02.081Z,39.70
2018-10-06T02:52:32.200Z,39.90
2018-10-06T02:55:02.480Z,40.00
2018-10-06T02:57:32.594Z,40.50
2018-10-06T03:00:02.718Z,40.13
2018-10-06T03:02:33.045Z,40.23
2018-10-06T03:05:03.420Z,40.57
2018-10-06T03:07:33.686Z,40.80
2018-10-06T03:10:04.173Z,40.47
2018-10-06T03:12:34.376Z,40.47
2018-10-06T03:15:04.803Z,41.20
2018-10-06T03:17:34.767Z,40.30
2018-10-06T03:20:05.125Z,40.27
2018-10-06T03:22:35.635Z,39.97
2018-10-06T03:25:06.458Z,40.77
2018-10-06T03:27:36.692Z,40.37
2018-10-06T03:30:08.767Z,40.43
2018-10-06T03:32:39.189Z,39.87
2018-10-06T03:35:09.939Z,39.43
2018-10-06T03:37:40.460Z,38.83
2018-10-06T03:40:10.746Z,39.13
2018-10-06T03:42:40.928Z,39.83
2018-10-06T03:45:11.449Z,39.17
2018-10-06T03:47:41.696Z,38.27
2018-10-06T03:50:11.785Z,38.30
2018-10-06T03:52:43.487Z,38.20
2018-10-06T03:55:13.903Z,38.47
2018-10-06T03:57:43.973Z,38.40
2018-10-06T04:00:14.339Z,38.30
2018-10-06T04:02:47.365Z,39.00
2018-10-06T04:05:17.798Z,39.87
2018-10-06T04:07:48.728Z,40.13
2018-10-06T04:10:18.604Z,40.93
2018-10-06T04:12:50.067Z,40.43
2018-10-06T04:15:19.949Z,39.40
2018-10-06T04:17:50.374Z,39.90
2018-10-06T04:20:20.426Z,39.70
2018-10-06T04:22:51.467Z,39.83
2018-10-06T04:25:21.921Z,39.63
2018-10-06T04:27:52.267Z,39.70
2018-10-06T04:30:22.235Z,39.00
2018-10-06T04:32:52.493Z,39.00
2018-10-06T04:35:22.476Z,38.87
2018-10-06T04:37:52.477Z,39.43
2018-10-06T04:40:22.823Z,39.37
2018-10-06T04:42:52.860Z,38.60
2018-10-06T04:45:22.985Z,38.60
2018-10-06T04:47:53.270Z,39.07
2018-10-06T04:50:23.551Z,39.57
2018-10-06T04:52:53.797Z,39.27
2018-10-06T04:55:24.852Z,39.27
2018-10-06T04:57:55.251Z,38.23
2018-10-06T05:00:25.452Z,40.00
2018-10-06T05:02:55.479Z,40.50
2018-10-06T05:05:25.477Z,39.87
2018-10-06T05:07:56.049Z,39.90
2018-10-06T05:10:26.410Z,40.03
2018-10-06T05:12:56.448Z,39.77
2018-10-06T05:15:26.544Z,39.77
2018-10-06T05:17:56.575Z,40.87
2018-10-06T05:20:26.656Z,41.23
2018-10-06T05:22:56.733Z,40.13
2018-10-06T05:25:27.334Z,40.17
2018-10-06T05:27:57.475Z,40.00
2018-10-06T05:30:27.666Z,40.33
2018-10-06T05:32:57.933Z,39.43
2018-10-06T05:35:27.995Z,39.90
2018-10-06T05:37:59.011Z,40.63
2018-10-06T05:40:29.214Z,39.37
2018-10-06T05:42:59.307Z,40.03
2018-10-06T05:45:29.835Z,39.63
2018-10-06T05:48:00.486Z,40.37
2018-10-06T05:50:31.476Z,40.07
2018-10-06T05:53:01.763Z,40.13
2018-10-06T05:55:31.726Z,40.33
2018-10-06T05:58:02.171Z,40.30
2018-10-06T06:00:32.370Z,40.17
2018-10-06T06:03:02.454Z,40.80
2018-10-06T06:05:32.529Z,40.43
2018-10-06T06:08:02.448Z,40.97
2018-10-06T06:10:32.971Z,41.17
2018-10-06T06:13:03.085Z,41.10
2018-10-06T06:15:33.293Z,41.67
2018-10-06T06:18:03.358Z,42.33
2018-10-06T06:20:33.459Z,41.70
2018-10-06T06:23:03.539Z,42.27
2018-10-06T06:25:34.454Z,41.17
2018-10-06T06:28:05.690Z,40.73
2018-10-06T06:30:35.651Z,42.33
2018-10-06T06:33:05.790Z,40.90
2018-10-06T06:35:36.558Z,40.77
2018-10-06T06:38:07.780Z,41.20
2018-10-06T06:40:37.891Z,40.03
2018-10-06T06:43:08.150Z,40.80
2018-10-06T06:45:38.389Z,41.30
2018-10-06T06:48:08.899Z,40.87
2018-10-06T06:50:39.289Z,40.93
2018-10-06T06:53:09.555Z,40.90
2018-10-06T06:55:39.544Z,40.60
2018-10-06T06:58:09.809Z,41.37
2018-10-06T07:00:40.134Z,56.93
2018-10-06T07:03:16.742Z,41.03
2018-10-06T07:05:47.263Z,40.33
2018-10-06T07:08:17.442Z,40.37
2018-10-06T07:10:47.571Z,40.40
2018-10-06T07:13:17.631Z,40.50
2018-10-06T07:15:47.816Z,40.30
2018-10-06T07:18:18.368Z,40.10
2018-10-06T07:20:48.652Z,40.37
2018-10-06T07:23:18.798Z,39.73
2018-10-06T07:25:49.169Z,39.33
2018-10-06T07:28:19.197Z,40.50
2018-10-06T07:30:49.367Z,39.93
2018-10-06T07:33:19.611Z,39.33
2018-10-06T07:35:49.845Z,40.20
2018-10-06T07:38:20.247Z,39.33
2018-10-06T07:40:50.654Z,39.47
2018-10-06T07:43:21.183Z,39.77
2018-10-06T07:45:51.362Z,40.77
2018-10-06T07:48:22.157Z,40.00
2018-10-06T07:50:52.763Z,39.77
2018-10-06T07:53:23.054Z,38.80
2018-10-06T07:55:53.198Z,40.73
2018-10-06T07:58:23.933Z,39.50
2018-10-06T08:00:54.132Z,39.77
2018-10-06T08:03:24.209Z,39.90
2018-10-06T08:05:54.434Z,39.80
2018-10-06T08:08:24.645Z,40.27
2018-10-06T08:10:54.796Z,39.70
2018-10-06T08:13:25.077Z,40.80
2018-10-06T08:15:55.203Z,42.57
2018-10-06T08:18:25.244Z,40.20
2018-10-06T08:20:55.435Z,40.83
2018-10-06T08:23:25.978Z,40.50
2018-10-06T08:25:56.205Z,41.17
2018-10-06T08:28:27.033Z,40.00
2018-10-06T08:30:57.226Z,40.33
2018-10-06T08:33:27.326Z,40.27
2018-10-06T08:35:58.612Z,39.70
2018-10-06T08:38:28.710Z,40.03
2018-10-06T08:40:58.940Z,39.40
2018-10-06T08:43:29.395Z,39.93
2018-10-06T08:45:59.418Z,39.37
2018-10-06T08:48:32.263Z,39.27
2018-10-06T08:51:02.385Z,40.13
2018-10-06T08:53:32.507Z,39.67
2018-10-06T08:56:03.193Z,39.23
2018-10-06T08:58:33.207Z,39.23
2018-10-06T09:01:04.030Z,39.70
2018-10-06T09:03:34.139Z,39.77
2018-10-06T09:06:04.658Z,39.30
2018-10-06T09:08:35.910Z,38.90
2018-10-06T09:11:06.158Z,40.10
2018-10-06T09:13:36.021Z,39.87
2018-10-06T09:16:06.242Z,38.83
2018-10-06T09:18:36.052Z,40.50
2018-10-06T09:21:05.838Z,40.63
2018-10-06T09:23:35.910Z,40.17
2018-10-06T09:26:06.207Z,39.60
2018-10-06T09:28:36.332Z,39.73
2018-10-06T09:31:06.831Z,40.07
2018-10-06T09:33:36.679Z,43.87
2018-10-06T09:36:06.878Z,39.73
2018-10-06T09:38:36.944Z,39.57
2018-10-06T09:41:08.397Z,40.13
2018-10-06T09:43:38.589Z,40.90
2018-10-06T09:46:09.358Z,40.53
2018-10-06T09:48:39.904Z,40.00
2018-10-06T09:51:10.347Z,39.23
2018-10-06T09:53:42.203Z,38.67
2018-10-06T09:56:13.009Z,39.83
2018-10-06T09:58:43.082Z,40.30
2018-10-06T10:01:18.476Z,40.83
2018-10-06T10:03:54.533Z,40.23
2018-10-06T10:06:24.689Z,39.27
2018-10-06T10:08:54.609Z,39.80
2018-10-06T10:11:24.876Z,39.70
2018-10-06T10:13:55.115Z,40.33
2018-10-06T10:16:25.473Z,38.90
2018-10-06T10:18:55.563Z,39.90
2018-10-06T10:21:29.129Z,40.80
2018-10-06T10:23:59.571Z,40.17
2018-10-06T10:26:30.867Z,40.00
2018-10-06T10:29:01.244Z,39.90
2018-10-06T10:31:32.309Z,39.77
2018-10-06T10:34:02.616Z,39.53
2018-10-06T10:36:32.959Z,40.30
2018-10-06T10:39:06.147Z,39.43
2018-10-06T10:41:36.507Z,39.30
2018-10-06T10:44:07.812Z,38.73
2018-10-06T10:46:37.835Z,38.67
2018-10-06T10:49:08.062Z,38.47
2018-10-06T10:51:38.293Z,39.80
2018-10-06T10:54:09.181Z,39.60
2018-10-06T10:56:39.465Z,39.80
2018-10-06T10:59:09.507Z,39.23
2018-10-06T11:01:39.798Z,47.77
2018-10-06T11:04:10.504Z,39.63
2018-10-06T11:06:40.951Z,40.07
2018-10-06T11:09:10.924Z,40.30
2018-10-06T11:11:40.838Z,39.87
2018-10-06T11:14:11.122Z,39.47
2018-10-06T11:16:41.822Z,39.87
2018-10-06T11:19:12.437Z,39.47
2018-10-06T11:21:42.782Z,40.13
2018-10-06T11:24:13.337Z,39.70
2018-10-06T11:26:43.449Z,40.03
2018-10-06T11:29:13.835Z,39.77
2018-10-06T11:31:44.288Z,39.37
2018-10-06T11:34:14.512Z,40.37
2018-10-06T11:36:44.587Z,40.17
2018-10-06T11:39:14.796Z,40.47
2018-10-06T11:41:44.765Z,40.03
2018-10-06T11:44:15.006Z,39.13
2018-10-06T11:46:44.956Z,40.93
2018-10-06T11:49:15.492Z,41.43
2018-10-06T11:51:45.914Z,41.50
2018-10-06T11:54:16.037Z,40.27
2018-10-06T11:56:46.072Z,39.77
2018-10-06T11:59:16.172Z,40.57
2018-10-06T12:01:46.339Z,40.10
2018-10-06T12:04:16.709Z,40.20
2018-10-06T12:06:46.591Z,40.80
2018-10-06T12:09:16.845Z,41.07
2018-10-06T12:11:47.235Z,41.67
2018-10-06T12:14:18.691Z,39.17
2018-10-06T12:16:49.054Z,40.67
2018-10-06T12:19:19.050Z,41.57
2018-10-06T12:21:49.567Z,40.80
2018-10-06T12:24:19.599Z,40.17
2018-10-06T12:26:49.998Z,39.57
2018-10-06T12:29:21.079Z,39.67
2018-10-06T12:31:51.362Z,40.40
2018-10-06T12:34:21.578Z,40.17
2018-10-06T12:36:52.330Z,41.00
2018-10-06T12:39:22.315Z,40.47
2018-10-06T12:41:52.372Z,40.37
2018-10-06T12:44:22.625Z,40.50
2018-10-06T12:46:52.963Z,40.63
2018-10-06T12:49:23.020Z,39.73
2018-10-06T12:51:53.237Z,40.00
2018-10-06T12:54:23.335Z,40.23
2018-10-06T12:56:53.328Z,39.67
2018-10-06T12:59:23.669Z,39.97
2018-10-06T13:01:53.857Z,40.03
2018-10-06T13:04:24.019Z,40.03
2018-10-06T13:06:54.109Z,39.70
2018-10-06T13:09:24.542Z,39.30
2018-10-06T13:11:55.096Z,40.07
2018-10-06T13:14:26.240Z,40.20
2018-10-06T13:16:56.640Z,40.20
2018-10-06T13:19:26.646Z,39.73
2018-10-06T13:21:56.966Z,40.53
2018-10-06T13:24:27.126Z,39.70
2018-10-06T13:26:57.416Z,39.70
2018-10-06T13:29:27.678Z,40.07
2018-10-06T13:31:58.218Z,39.60
2018-10-06T13:34:29.559Z,40.23
2018-10-06T13:36:59.720Z,39.73
2018-10-06T13:39:29.971Z,40.33
2018-10-06T13:42:00.159Z,39.83
2018-10-06T13:44:30.872Z,40.57
2018-10-06T13:47:01.215Z,40.20
2018-10-06T13:49:31.584Z,41.57
2018-10-06T13:52:01.518Z,40.03
2018-10-06T13:54:31.800Z,40.03
2018-10-06T13:57:02.067Z,40.07
2018-10-06T13:59:32.436Z,40.70
2018-10-06T14:02:02.457Z,40.23
2018-10-06T14:04:32.855Z,41.13
2018-10-06T14:07:03.142Z,41.23
2018-10-06T14:09:33.118Z,40.53
2018-10-06T14:12:03.487Z,41.47
2018-10-06T14:14:33.622Z,40.97
2018-10-06T14:17:04.181Z,42.07
2018-10-06T14:19:34.315Z,42.13
2018-10-06T14:22:04.546Z,40.77
2018-10-06T14:24:34.903Z,42.33
2018-10-06T14:27:05.000Z,41.73
2018-10-06T14:29:35.462Z,40.90
2018-10-06T14:32:05.367Z,41.23
2018-10-06T14:34:36.029Z,41.30
2018-10-06T14:37:06.463Z,40.97
2018-10-06T14:39:37.010Z,41.67
2018-10-06T14:42:07.412Z,40.87
2018-10-06T14:44:37.783Z,41.43
2018-10-06T14:47:07.996Z,41.17
2018-10-06T14:49:38.172Z,41.20
2018-10-06T14:52:08.133Z,41.10
2018-10-06T14:54:39.387Z,41.60
2018-10-06T14:57:09.861Z,41.63
2018-10-06T14:59:40.159Z,41.47
2018-10-06T15:02:10.233Z,40.57
2018-10-06T15:04:40.438Z,40.63
2018-10-06T15:07:11.107Z,40.80
2018-10-06T15:09:41.294Z,41.00
2018-10-06T15:12:11.499Z,41.20
2018-10-06T15:14:41.726Z,40.47
2018-10-06T15:17:11.964Z,42.00
2018-10-06T15:19:42.187Z,41.47
2018-10-06T15:22:12.460Z,41.90
2018-10-06T15:24:42.640Z,40.80
2018-10-06T15:27:13.857Z,41.23
2018-10-06T15:29:43.902Z,40.87
2018-10-06T15:32:14.184Z,41.50
2018-10-06T15:34:44.657Z,41.27
2018-10-06T15:37:15.163Z,40.80
2018-10-06T15:39:45.289Z,41.50
2018-10-06T15:42:15.484Z,41.73
2018-10-06T15:44:45.670Z,41.50
2018-10-06T15:47:15.954Z,40.93
2018-10-06T15:49:46.163Z,42.73
2018-10-06T15:52:16.266Z,41.30
2018-10-06T15:54:46.685Z,41.60
2018-10-06T15:57:16.964Z,41.10
2018-10-06T15:59:47.065Z,41.47
2018-10-06T16:02:17.055Z,41.07
2018-10-06T16:04:47.191Z,41.67
2018-10-06T16:07:17.418Z,41.50
2018-10-06T16:09:47.484Z,41.23
2018-10-06T16:12:17.658Z,40.60
2018-10-06T16:14:47.976Z,41.07
2018-10-06T16:17:18.865Z,41.50
2018-10-06T16:19:49.727Z,40.53
2018-10-06T16:22:19.943Z,40.50
2018-10-06T16:24:50.044Z,41.43
2018-10-06T16:27:20.346Z,42.60
2018-10-06T16:29:50.700Z,42.30
2018-10-06T16:32:21.251Z,42.20
2018-10-06T16:34:51.328Z,41.70
2018-10-06T16:37:21.467Z,42.30
2018-10-06T16:39:51.588Z,41.67
2018-10-06T16:42:21.528Z,41.80
2018-10-06T16:44:51.622Z,41.47
2018-10-06T16:47:21.711Z,41.23
2018-10-06T16:49:51.765Z,42.43
2018-10-06T16:52:21.830Z,42.37
2018-10-06T16:54:52.534Z,41.70
2018-10-06T16:57:22.808Z,41.60
2018-10-06T16:59:53.007Z,42.07
2018-10-06T17:02:24.432Z,40.13
2018-10-06T17:04:54.884Z,40.50
2018-10-06T17:07:25.059Z,40.27
2018-10-06T17:09:55.395Z,39.87
2018-10-06T17:12:26.132Z,39.23
2018-10-06T17:14:56.417Z,40.23
2018-10-06T17:17:27.139Z,40.97
2018-10-06T17:19:57.450Z,40.60
2018-10-06T17:22:33.350Z,40.10
2018-10-06T17:25:06.411Z,40.20
2018-10-06T17:27:36.442Z,40.30
2018-10-06T17:30:06.617Z,39.43
2018-10-06T17:32:36.553Z,39.57
2018-10-06T17:35:06.832Z,40.23
2018-10-06T17:37:36.889Z,40.23
2018-10-06T17:40:06.987Z,40.00
2018-10-06T17:42:37.124Z,39.73
2018-10-06T17:45:07.482Z,40.10
2018-10-06T17:47:37.606Z,39.83
2018-10-06T17:50:08.014Z,40.27
2018-10-06T17:52:37.893Z,39.87
2018-10-06T17:55:07.696Z,39.40
2018-10-06T17:57:38.276Z,40.37
2018-10-06T18:00:08.455Z,39.77
2018-10-06T18:02:38.974Z,39.73
2018-10-06T18:05:09.455Z,39.40
2018-10-06T18:07:40.111Z,38.93
2018-10-06T18:10:10.384Z,39.70
2018-10-06T18:12:40.223Z,38.80
2018-10-06T18:15:10.278Z,39.70
2018-10-06T18:17:40.592Z,39.70
2018-10-06T18:20:10.935Z,39.37
2018-10-06T18:22:40.944Z,39.63
2018-10-06T18:25:11.151Z,39.63
2018-10-06T18:27:41.826Z,39.20
2018-10-06T18:30:11.872Z,39.60
2018-10-06T18:32:42.274Z,39.20
2018-10-06T18:35:12.641Z,39.23
2018-10-06T18:37:42.940Z,39.70
2018-10-06T18:40:13.052Z,39.57
2018-10-06T18:42:43.069Z,38.77
2018-10-06T18:45:13.066Z,39.77
2018-10-06T18:47:43.156Z,39.40
2018-10-06T18:50:13.404Z,39.37
2018-10-06T18:52:43.710Z,40.63
2018-10-06T18:55:14.011Z,39.50
2018-10-06T18:57:44.231Z,39.33
2018-10-06T19:00:15.115Z,39.47
2018-10-06T19:02:46.365Z,39.53
2018-10-06T19:05:16.478Z,40.27
2018-10-06T19:07:46.561Z,39.63
2018-10-06T19:10:16.967Z,39.20
2018-10-06T19:12:46.896Z,38.77
2018-10-06T19:15:16.910Z,38.90
2018-10-06T19:17:47.140Z,39.77
2018-10-06T19:20:17.329Z,39.93
2018-10-06T19:22:47.855Z,39.07
2018-10-06T19:25:18.411Z,39.43
2018-10-06T19:27:48.615Z,39.53
2018-10-06T19:30:18.779Z,40.60
2018-10-06T19:32:48.988Z,39.93
2018-10-06T19:35:19.381Z,40.77
2018-10-06T19:37:56.024Z,40.17
2018-10-06T19:40:26.351Z,40.00
2018-10-06T19:42:56.610Z,39.00
2018-10-06T19:45:26.978Z,40.87
2018-10-06T19:47:58.000Z,40.50
2018-10-06T19:50:28.210Z,40.30
2018-10-06T19:52:58.086Z,40.67
2018-10-06T19:55:27.991Z,40.97
2018-10-06T19:57:58.341Z,39.73
2018-10-06T20:00:28.600Z,42.07
2018-10-06T20:02:58.762Z,40.73
2018-10-06T20:05:28.929Z,40.23
2018-10-06T20:07:58.835Z,40.53
2018-10-06T20:10:29.075Z,39.47
2018-10-06T20:12:59.137Z,40.17
2018-10-06T20:15:29.630Z,40.40
2018-10-06T20:18:00.430Z,39.27
2018-10-06T20:20:30.859Z,39.77
2018-10-06T20:23:00.979Z,40.07
2018-10-06T20:25:31.017Z,40.10
2018-10-06T20:28:00.949Z,39.90
2018-10-06T20:30:31.093Z,39.40
2018-10-06T20:33:01.273Z,39.53
2018-10-06T20:35:32.281Z,39.23
2018-10-06T20:38:02.621Z,40.03
2018-10-06T20:40:32.756Z,39.80
2018-10-06T20:43:03.051Z,40.07
2018-10-06T20:45:33.098Z,39.57
2018-10-06T20:48:03.034Z,40.43
2018-10-06T20:50:33.552Z,39.40
2018-10-06T20:53:03.487Z,39.87
2018-10-06T20:55:33.983Z,39.97
2018-10-06T20:58:03.992Z,39.63
2018-10-06T21:00:34.457Z,39.27
2018-10-06T21:03:04.703Z,39.03
2018-10-06T21:05:35.382Z,38.37
2018-10-06T21:08:05.576Z,39.27
2018-10-06T21:10:35.904Z,39.87
2018-10-06T21:13:06.036Z,39.27
2018-10-06T21:15:35.952Z,39.33
2018-10-06T21:18:06.661Z,39.27
2018-10-06T21:20:37.154Z,39.10
2018-10-06T21:23:07.456Z,38.87
2018-10-06T21:25:37.737Z,38.77
2018-10-06T21:28:08.248Z,38.93
2018-10-06T21:30:38.440Z,38.90
2018-10-06T21:33:08.975Z,38.50
2018-10-06T21:35:39.221Z,38.70
2018-10-06T21:38:09.445Z,39.47
2018-10-06T21:40:39.517Z,39.33
2018-10-06T21:43:09.483Z,39.80
2018-10-06T21:45:39.651Z,39.23
2018-10-06T21:48:09.575Z,38.87
2018-10-06T21:50:39.689Z,38.97
2018-10-06T21:53:10.209Z,38.90
2018-10-06T21:55:40.370Z,39.73
2018-10-06T21:58:10.579Z,39.00
2018-10-06T22:00:40.704Z,39.03
2018-10-06T22:03:11.295Z,38.67
2018-10-06T22:05:41.270Z,39.57
2018-10-06T22:08:11.865Z,40.23
2018-10-06T22:10:42.179Z,39.37
2018-10-06T22:13:12.384Z,38.37
2018-10-06T22:15:42.825Z,38.57
2018-10-06T22:18:13.055Z,38.37
2018-10-06T22:20:43.373Z,38.93
2018-10-06T22:23:14.442Z,39.63
2018-10-06T22:25:44.519Z,39.27
2018-10-06T22:28:14.846Z,39.63
2018-10-06T22:30:45.060Z,39.87
2018-10-06T22:33:15.313Z,38.90
2018-10-06T22:35:45.358Z,39.23
2018-10-06T22:38:15.836Z,39.23
2018-10-06T22:40:46.007Z,38.77
2018-10-06T22:43:17.142Z,38.87
2018-10-06T22:45:47.313Z,38.83
2018-10-06T22:48:17.666Z,38.73
2018-10-06T22:50:47.863Z,39.90
2018-10-06T22:53:18.228Z,39.27
2018-10-06T22:55:48.514Z,38.90
2018-10-06T22:58:19.351Z,39.00
2018-10-06T23:00:49.959Z,71.73
2018-10-06T23:03:20.166Z,39.67
2018-10-06T23:05:50.424Z,39.10
2018-10-06T23:08:20.865Z,38.10
2018-10-06T23:10:50.926Z,39.20
2018-10-06T23:13:21.204Z,39.10
2018-10-06T23:15:51.707Z,38.33
2018-10-06T23:18:21.946Z,39.03
2018-10-06T23:20:52.248Z,38.63
2018-10-06T23:23:22.460Z,39.67
2018-10-06T23:25:52.733Z,37.57
2018-10-06T23:28:22.909Z,38.77
2018-10-06T23:30:53.620Z,39.03
2018-10-06T23:33:24.067Z,38.87
2018-10-06T23:35:54.018Z,39.30
2018-10-06T23:38:24.139Z,38.60
2018-10-06T23:40:54.226Z,38.57
2018-10-06T23:43:24.483Z,38.50
2018-10-06T23:45:54.725Z,38.83
2018-10-06T23:48:25.264Z,38.30
2018-10-06T23:50:56.184Z,37.93
2018-10-06T23:53:26.309Z,38.77
2018-10-06T23:55:56.608Z,38.87
2018-10-06T23:58:26.829Z,38.53
